Terminal Aerodrome Forecast
Issued by NWS

Home | Current Version | Previous Version | Text Only | Print | Product List | Glossary Off
Versions: 1 2 3 4 5 6 7 8 9 10 11 12 13 14

489
FTUS43 KIWX 151736
TAFSBN
TAF
KSBN 151736Z 1518/1618 00000KT P6SM FEW035
     FM161100 VRB03KT 4SM BR SCT200
     FM161200 VRB03KT P6SM SCT110=

USA.gov is the U.S. government's official web portal to all federal, state and local government web resources and services.